Time;durP1;ratioP1;P1;durP2;ratioP2;P2;SDS_P1;SDS_P2;PMS_P1;PMS_P2;Temp;Humidity;BMP_temperature;BMP_pressure;BME280_temperature;BME280_humidity;BME280_pressure;Samples;Min_cycle;Max_cycle;Signal;HPM_P1;HPM_P2
2022/12/06 00:01:22;;;;;;;10.70;8.15;;;;;;;8.35;66.98;101522.91;4776053;29;120025;-82
2022/12/06 00:03:54;;;;;;;10.18;8.18;;;;;;;8.30;66.85;101519.44;4789760;29;119792;-82
2022/12/06 00:06:26;;;;;;;10.30;8.40;;;;;;;8.30;67.74;101522.16;4768328;29;121063;-83
2022/12/06 00:08:52;;;;;;;10.90;7.72;;;;;;;8.34;67.43;101527.59;4784833;29;119654;-81
2022/12/06 00:11:27;;;;;;;9.98;8.52;;;;;;;8.34;66.64;101530.34;4755892;29;121467;-83
2022/12/06 00:13:54;;;;;;;9.57;8.30;;;;;;;8.26;66.78;101515.19;4768484;29;122229;-81
2022/12/06 00:16:21;;;;;;;10.32;8.63;;;;;;;8.36;66.98;101519.00;4765294;29;119749;-83
2022/12/06 00:18:47;;;;;;;10.95;8.80;;;;;;;8.38;66.83;101535.75;4769723;29;119852;-81
2022/12/06 00:21:22;;;;;;;11.07;9.00;;;;;;;8.37;67.09;101517.81;4776694;29;119348;-83
2022/12/06 00:23:50;;;;;;;10.82;9.48;;;;;;;8.35;66.98;101503.78;4769064;29;119543;-82
2022/12/06 00:26:17;;;;;;;11.25;9.43;;;;;;;8.39;66.28;101518.16;4787351;29;119774;-81
2022/12/06 00:28:43;;;;;;;12.88;9.90;;;;;;;8.28;66.15;101510.88;4769111;29;119991;-83
2022/12/06 00:31:14;;;;;;;12.48;10.70;;;;;;;8.33;66.65;101506.91;4758424;29;121019;-81
2022/12/06 00:33:40;;;;;;;13.13;10.32;;;;;;;8.29;66.26;101503.44;4769013;29;123252;-80
2022/12/06 00:36:10;;;;;;;13.20;10.40;;;;;;;8.29;65.90;101503.44;4786836;29;119386;-83
2022/12/06 00:38:36;;;;;;;15.48;11.60;;;;;;;8.16;66.83;101494.28;4785598;29;119344;-81
2022/12/06 00:41:05;;;;;;;13.25;11.27;;;;;;;8.21;66.58;101502.00;4770756;29;120641;-81
2022/12/06 00:43:33;;;;;;;15.30;11.57;;;;;;;8.24;66.64;101501.94;4770221;29;120112;-80
2022/12/06 00:45:59;;;;;;;15.45;12.05;;;;;;;8.17;66.33;101493.09;4769986;29;119915;-81
2022/12/06 00:48:25;;;;;;;18.83;12.48;;;;;;;8.12;66.45;101482.63;4790200;29;119678;-80
2022/12/06 00:50:51;;;;;;;15.32;12.32;;;;;;;8.20;67.18;101494.97;4760040;29;120199;-80
2022/12/06 00:53:17;;;;;;;16.10;12.68;;;;;;;8.18;66.57;101494.63;4784512;29;120295;-84
2022/12/06 00:55:44;;;;;;;16.13;12.75;;;;;;;8.21;66.73;101493.78;4775935;29;119795;-81
2022/12/06 00:58:11;;;;;;;18.45;13.18;;;;;;;8.23;66.67;101492.19;4785652;29;119351;-82
2022/12/06 01:00:37;;;;;;;17.30;12.95;;;;;;;8.21;66.70;101491.06;4785274;29;119745;-82
2022/12/06 01:03:03;;;;;;;17.70;13.30;;;;;;;8.20;66.74;101481.31;4766992;29;119841;-81
2022/12/06 01:05:29;;;;;;;16.63;13.25;;;;;;;8.20;67.18;101484.06;4760743;29;121085;-82
2022/12/06 01:07:55;;;;;;;18.83;13.25;;;;;;;8.24;66.63;101487.50;4770081;29;121828;-81
2022/12/06 01:10:21;;;;;;;17.10;13.48;;;;;;;8.19;66.51;101477.03;4789093;29;119623;-81
2022/12/06 01:12:47;;;;;;;20.38;14.45;;;;;;;8.22;66.41;101482.44;4774579;29;120280;-81
2022/12/06 01:15:12;;;;;;;20.85;14.52;;;;;;;8.19;66.63;101480.53;4790239;29;119502;-83
2022/12/06 01:17:38;;;;;;;17.80;13.77;;;;;;;8.18;67.30;101473.53;4775074;29;121007;-81
2022/12/06 01:20:05;;;;;;;18.58;14.02;;;;;;;8.19;66.74;101477.81;4779344;29;119806;-81
2022/12/06 01:22:31;;;;;;;22.85;14.88;;;;;;;8.16;66.95;101478.66;4767471;29;119908;-81
2022/12/06 01:24:57;;;;;;;18.95;14.13;;;;;;;8.18;67.03;101481.72;4776153;29;120598;-81
2022/12/06 01:27:23;;;;;;;21.13;14.85;;;;;;;8.19;67.04;101477.81;4789614;29;119764;-82
2022/12/06 01:29:53;;;;;;;19.45;14.25;;;;;;;8.16;67.10;101484.09;4773150;29;120617;-80
2022/12/06 01:32:21;;;;;;;20.92;14.80;;;;;;;8.20;67.08;101470.38;4755639;29;119590;-82
2022/12/06 01:34:51;;;;;;;21.23;14.85;;;;;;;8.13;66.52;101454.09;4777860;29;119560;-81
2022/12/06 01:37:17;;;;;;;19.25;14.15;;;;;;;8.22;66.56;101466.06;4796058;29;119737;-82
2022/12/06 01:39:44;;;;;;;18.50;14.27;;;;;;;8.24;66.69;101465.63;4769265;29;121948;-82
2022/12/06 01:42:11;;;;;;;21.05;14.43;;;;;;;8.24;66.49;101462.91;4788055;29;120260;-82
2022/12/06 01:44:49;;;;;;;22.25;15.30;;;;;;;8.27;66.59;101465.56;4773121;29;119777;-85
2022/12/06 01:47:23;;;;;;;18.80;14.95;;;;;;;8.31;65.85;101454.59;4791187;29;119775;-83
2022/12/06 01:49:54;;;;;;;21.48;14.18;;;;;;;8.27;66.72;101454.63;4771705;29;119450;-84
2022/12/06 01:52:24;;;;;;;19.10;14.43;;;;;;;8.32;66.61;101461.63;4789670;29;119588;-81
2022/12/06 01:54:51;;;;;;;18.30;14.63;;;;;;;8.34;66.96;101467.47;4769487;29;119992;-82
2022/12/06 01:57:17;;;;;;;19.35;14.65;;;;;;;8.30;66.60;101461.25;4774894;29;119877;-81
2022/12/06 01:59:44;;;;;;;19.58;14.77;;;;;;;8.29;66.42;101457.75;4790759;29;119392;-81
2022/12/06 02:02:10;;;;;;;20.40;14.50;;;;;;;8.32;66.06;101467.84;4785957;29;119973;-82
2022/12/06 02:04:36;;;;;;;18.33;14.13;;;;;;;8.32;66.46;101467.09;4792997;29;120047;-82
2022/12/06 02:07:03;;;;;;;19.30;14.10;;;;;;;8.24;66.38;101460.94;4774044;29;119865;-82
2022/12/06 02:09:30;;;;;;;23.42;15.02;;;;;;;8.31;66.43;101468.28;4775219;29;119907;-82
2022/12/06 02:11:55;;;;;;;18.85;14.43;;;;;;;8.30;66.30;101464.78;4776052;29;120003;-81
2022/12/06 02:14:27;;;;;;;20.45;15.27;;;;;;;8.34;66.36;101464.72;4791045;29;119651;-83
2022/12/06 02:17:36;;;;;;;19.88;14.80;;;;;;;8.39;66.58;101453.31;4773861;29;119611;-84
2022/12/06 02:20:30;;;;;;;22.60;16.65;;;;;;;8.39;66.28;101445.13;4744009;29;121034;-82
2022/12/06 02:23:22;;;;;;;21.70;16.20;;;;;;;8.42;66.14;101452.47;4773978;29;119937;-83
2022/12/06 02:26:18;;;;;;;24.60;17.02;;;;;;;8.45;66.09;101453.59;4791973;29;119499;-82
2022/12/06 02:28:50;;;;;;;24.42;17.33;;;;;;;8.43;65.25;101447.78;4787185;29;120014;-82
2022/12/06 02:31:25;;;;;;;20.58;16.27;;;;;;;8.34;65.72;101444.81;4772371;29;119609;-82
2022/12/06 02:34:16;;;;;;;22.90;18.05;;;;;;;8.26;65.84;101452.31;4772168;29;119412;-83
2022/12/06 02:36:44;;;;;;;22.73;17.05;;;;;;;8.21;65.58;101442.63;4773685;29;119354;-82
2022/12/06 02:39:28;;;;;;;24.13;17.70;;;;;;;8.19;nan;101441.50;4793491;29;120007;-82
2022/12/06 02:42:01;;;;;;;23.02;17.42;;;;;;;8.19;65.79;101439.56;4787759;29;120136;-81
2022/12/06 02:44:51;;;;;;;22.05;16.33;;;;;;;8.20;65.65;101434.84;4762392;29;119528;-84
2022/12/06 02:47:22;;;;;;;20.58;14.95;;;;;;;8.24;65.80;101441.03;4773598;29;120441;-84
2022/12/06 02:49:49;;;;;;;20.88;15.55;;;;;;;8.23;65.65;101442.22;4789895;29;119453;-84
2022/12/06 02:52:18;;;;;;;18.90;14.60;;;;;;;8.24;66.30;101438.31;4789927;29;119331;-81
2022/12/06 02:54:47;;;;;;;19.15;14.98;;;;;;;8.28;66.02;101430.81;4787454;29;119347;-82
2022/12/06 02:57:13;;;;;;;18.30;15.07;;;;;;;8.30;65.88;101425.72;4779517;29;120760;-81
2022/12/06 02:59:38;;;;;;;19.23;14.40;;;;;;;8.29;65.77;101429.66;4770676;29;119807;-83
2022/12/06 03:02:09;;;;;;;21.92;15.23;;;;;;;8.33;65.51;101424.91;4790044;29;120092;-81
2022/12/06 03:04:45;;;;;;;17.70;14.35;;;;;;;8.36;65.63;101426.03;4786245;29;120430;-81
2022/12/06 03:07:16;;;;;;;17.83;13.60;;;;;;;8.36;65.27;101418.63;4789264;29;119955;-83
2022/12/06 03:09:57;;;;;;;17.05;13.18;;;;;;;8.36;65.83;101418.63;4797423;29;120202;-83
2022/12/06 03:12:26;;;;;;;17.48;13.88;;;;;;;8.29;65.45;101408.56;4791179;29;119824;-83
2022/12/06 03:14:59;;;;;;;18.67;14.63;;;;;;;8.36;65.11;101418.63;4790045;29;119601;-81
2022/12/06 03:17:28;;;;;;;18.08;14.93;;;;;;;8.38;64.72;101418.97;4772288;29;119770;-82
2022/12/06 03:19:58;;;;;;;20.70;17.70;;;;;;;8.18;65.21;101393.50;4831333;23;120810;-87
2022/12/06 03:22:32;;;;;;;22.73;18.60;;;;;;;8.41;65.03;101422.81;4784938;29;120897;-87
2022/12/06 03:25:00;;;;;;;21.55;17.15;;;;;;;8.00;64.89;101359.03;4772889;29;122545;-85
2022/12/06 03:27:29;;;;;;;21.02;17.38;;;;;;;8.43;64.54;101421.22;4783753;29;121719;-86
2022/12/06 03:30:03;;;;;;;16.48;13.20;;;;;;;8.15;64.91;101383.41;4787084;29;119573;-87
2022/12/06 03:32:34;;;;;;;29.20;22.23;;;;;;;7.98;65.01;101355.97;4788438;29;119597;-87
2022/12/06 03:35:06;;;;;;;19.13;15.00;;;;;;;8.04;64.99;101366.41;4785610;29;119784;-87
2022/12/06 03:37:37;;;;;;;18.60;15.90;;;;;;;8.22;64.87;101391.47;4753313;29;120844;-87
2022/12/06 03:40:22;;;;;;;17.80;15.55;;;;;;;8.01;65.17;101365.28;4783821;29;125335;-86
2022/12/06 03:42:50;;;;;;;18.77;14.63;;;;;;;8.16;65.06;101379.50;4785961;29;121569;-86
2022/12/06 03:45:21;;;;;;;16.27;14.00;;;;;;;8.10;64.91;101359.31;4784254;29;121335;-87
2022/12/06 03:47:57;;;;;;;17.77;14.68;;;;;;;8.43;65.04;101406.78;4788536;29;119940;-86
2022/12/06 03:50:33;;;;;;;16.40;14.48;;;;;;;8.27;64.91;101385.53;4771014;29;119418;-87
2022/12/06 03:53:00;;;;;;;19.42;15.95;;;;;;;8.09;65.34;101357.75;4786581;29;120293;-87
2022/12/06 03:55:27;;;;;;;15.55;13.30;;;;;;;8.02;64.81;101348.47;4799894;29;119912;-87
2022/12/06 03:57:55;;;;;;;17.77;14.10;;;;;;;8.11;64.46;101358.13;4785444;29;119255;-86
2022/12/06 04:00:26;;;;;;;14.85;13.25;;;;;;;7.96;64.68;101333.75;4769226;29;119456;-86
2022/12/06 04:02:54;;;;;;;16.45;13.13;;;;;;;8.12;64.76;101367.84;4786253;29;120361;-86
2022/12/06 04:05:22;;;;;;;15.68;13.32;;;;;;;7.94;64.24;101340.81;4814614;29;119307;-87
2022/12/06 04:07:49;;;;;;;17.52;13.32;;;;;;;8.00;64.70;101364.50;4787102;29;119451;-86
2022/12/06 04:10:18;;;;;;;16.35;13.02;;;;;;;7.92;65.28;101338.50;4770298;29;121535;-87
2022/12/06 04:13:01;;;;;;;15.07;12.80;;;;;;;7.98;64.32;101358.69;4786235;29;119518;-86
2022/12/06 04:15:35;;;;;;;14.80;12.68;;;;;;;8.18;64.86;101377.13;4784867;29;121124;-86
2022/12/06 04:18:10;;;;;;;18.17;13.38;;;;;;;7.95;64.77;101348.59;4768789;29;120809;-86
2022/12/06 04:23:28;;;;;;;17.52;13.50;;;;;;;8.08;64.16;101358.94;4786106;29;120925;-87
2022/12/06 04:25:55;;;;;;;16.92;14.38;;;;;;;7.85;64.82;101335.13;4767589;29;121752;-87
2022/12/06 04:39:33;;;;;;;18.05;14.50;;;;;;;7.90;65.48;101343.63;4799534;29;121272;-87
2022/12/06 04:44:48;;;;;;;17.83;14.27;;;;;;;7.93;64.74;101342.00;4801776;29;119352;-87
2022/12/06 04:47:15;;;;;;;19.10;14.23;;;;;;;7.91;65.16;101330.72;4798560;29;119494;-87
2022/12/06 04:49:44;;;;;;;19.83;13.95;;;;;;;8.05;64.73;101349.63;4768633;29;119449;-87
2022/12/06 04:52:11;;;;;;;18.35;14.27;;;;;;;7.83;64.68;101324.63;4802828;29;120509;-87
2022/12/06 04:54:41;;;;;;;16.85;13.70;;;;;;;8.07;64.77;101365.59;4775113;29;121224;-87
2022/12/06 04:57:12;;;;;;;18.80;13.80;;;;;;;7.86;64.35;101323.78;4782192;29;119977;-87
2022/12/06 04:59:45;;;;;;;19.77;13.95;;;;;;;8.14;64.56;101362.75;4786299;29;121067;-87
2022/12/06 05:02:17;;;;;;;18.33;14.30;;;;;;;8.26;64.34;101386.72;4787263;29;118541;-87
2022/12/06 05:04:45;;;;;;;20.03;14.43;;;;;;;8.13;64.67;101370.16;4771180;29;121988;-87
2022/12/06 05:07:20;;;;;;;20.80;15.23;;;;;;;8.17;64.54;101365.41;4794800;29;120961;-87
2022/12/06 05:09:51;;;;;;;18.95;14.77;;;;;;;8.07;64.31;101347.25;4802866;29;118406;-87
2022/12/06 05:12:21;;;;;;;18.25;14.35;;;;;;;8.17;64.58;101368.16;4787285;29;118536;-87
2022/12/06 05:14:49;;;;;;;18.65;15.10;;;;;;;7.92;64.63;101324.06;4804810;29;120498;-88
2022/12/06 05:17:15;;;;;;;19.08;13.95;;;;;;;7.97;64.59;101338.03;4792059;29;118563;-87
2022/12/06 05:19:44;;;;;;;17.92;14.20;;;;;;;7.87;64.87;101336.25;4788718;29;121381;-87
2022/12/06 05:22:11;;;;;;;18.60;14.43;;;;;;;7.89;65.15;101341.31;4773931;29;119483;-87
2022/12/06 05:24:44;;;;;;;18.15;14.40;;;;;;;7.93;65.15;101342.78;4787507;29;120618;-86
2022/12/06 05:27:11;;;;;;;17.60;14.23;;;;;;;8.17;64.90;101367.38;4801473;29;119261;-86
2022/12/06 05:29:37;;;;;;;17.75;13.98;;;;;;;8.07;64.99;101354.69;4802110;29;119374;-86
2022/12/06 05:32:04;;;;;;;18.58;13.80;;;;;;;7.95;64.54;101328.72;4785833;29;120922;-87
2022/12/06 05:34:32;;;;;;;19.08;13.35;;;;;;;8.02;64.95;101340.28;4786883;29;121269;-86
2022/12/06 05:36:58;;;;;;;17.13;14.30;;;;;;;7.93;65.10;101331.84;4785078;29;119468;-86
2022/12/06 05:39:28;;;;;;;16.45;13.63;;;;;;;7.99;65.10;101332.91;4789576;29;120857;-86
2022/12/06 05:41:57;;;;;;;18.02;14.13;;;;;;;7.91;64.54;101325.28;4771033;29;119287;-87
2022/12/06 05:44:25;;;;;;;17.00;14.05;;;;;;;8.11;65.03;101358.88;4787905;29;118560;-87
2022/12/06 05:46:51;;;;;;;16.10;14.02;;;;;;;7.91;64.54;101331.50;4786348;29;120697;-86
2022/12/06 05:49:23;;;;;;;17.67;13.63;;;;;;;7.89;65.36;101322.94;4787598;29;119220;-87
2022/12/06 05:51:51;;;;;;;16.80;13.82;;;;;;;7.87;64.94;101322.59;4818760;29;120640;-87
2022/12/06 05:54:18;;;;;;;17.40;13.60;;;;;;;7.90;64.88;101326.47;4786228;29;119259;-86
2022/12/06 05:56:44;;;;;;;18.25;13.88;;;;;;;8.00;64.41;101345.38;4784929;29;119426;-86
2022/12/06 05:59:12;;;;;;;16.17;13.60;;;;;;;7.99;64.89;101341.13;4785595;29;119915;-86
2022/12/06 06:01:38;;;;;;;15.70;12.98;;;;;;;7.93;64.99;101336.56;4788775;29;120859;-86
2022/12/06 06:04:05;;;;;;;15.77;13.38;;;;;;;7.86;64.07;101334.72;4800827;29;120640;-86
2022/12/06 06:06:32;;;;;;;17.60;14.43;;;;;;;7.79;63.95;101320.38;4770030;29;121253;-86
2022/12/06 06:09:08;;;;;;;16.75;14.38;;;;;;;7.73;64.90;101320.09;4786193;29;121309;-86
2022/12/06 06:11:35;;;;;;;17.83;14.60;;;;;;;7.76;64.14;101329.41;4770160;29;121314;-86
2022/12/06 06:14:02;;;;;;;17.10;14.50;;;;;;;7.82;64.71;101336.75;4800181;29;119316;-86
2022/12/06 06:16:29;;;;;;;17.58;14.90;;;;;;;7.59;64.79;101303.94;4801890;29;119094;-86
2022/12/06 06:18:55;;;;;;;17.17;14.18;;;;;;;7.82;64.30;101342.19;4799200;29;120287;-86
2022/12/06 06:21:23;;;;;;;17.58;14.90;;;;;;;7.67;64.12;101319.03;4789133;29;120394;-87
2022/12/06 06:23:50;;;;;;;17.80;14.02;;;;;;;7.82;64.50;101336.75;4801527;29;119441;-87
2022/12/06 06:26:18;;;;;;;19.52;15.40;;;;;;;7.62;64.05;101303.13;4787609;29;119193;-87
2022/12/06 06:28:46;;;;;;;17.80;15.57;;;;;;;7.70;64.45;101323.66;4785995;29;119406;-86
2022/12/06 06:31:16;;;;;;;20.13;16.58;;;;;;;7.72;64.55;101328.69;4800101;29;119254;-87
2022/12/06 06:33:42;;;;;;;21.08;16.52;;;;;;;7.65;64.46;101310.47;4783338;29;120766;-87
2022/12/06 06:36:09;;;;;;;19.10;16.50;;;;;;;7.69;64.52;101322.13;4771468;29;119538;-87
2022/12/06 06:38:36;;;;;;;19.10;15.43;;;;;;;7.62;64.50;101311.31;4786714;29;119458;-87
2022/12/06 06:41:06;;;;;;;18.45;15.38;;;;;;;7.82;64.05;101342.19;4795822;29;119371;-86
2022/12/06 06:43:34;;;;;;;18.33;15.02;;;;;;;7.85;63.95;101351.53;4784649;29;120887;-86
2022/12/06 06:46:06;;;;;;;19.55;14.90;;;;;;;7.56;64.14;101308.25;4756995;29;121106;-86
2022/12/06 06:48:36;;;;;;;17.45;14.75;;;;;;;7.71;64.16;101336.13;4797413;29;121504;-87
2022/12/06 06:51:08;;;;;;;17.52;14.52;;;;;;;7.97;64.40;101370.03;4785301;29;119395;-87
2022/12/06 06:53:34;;;;;;;16.48;14.02;;;;;;;7.64;63.54;101325.31;4764239;29;119332;-87
2022/12/06 06:56:03;;;;;;;19.00;14.60;;;;;;;7.66;63.85;101329.19;4763993;29;119592;-87
2022/12/06 06:58:30;;;;;;;19.42;14.68;;;;;;;7.69;63.52;101335.75;4769299;29;121215;-86
2022/12/06 07:01:00;;;;;;;19.13;14.27;;;;;;;7.69;63.65;101341.22;4782314;29;119348;-86
2022/12/06 07:03:30;;;;;;;15.98;13.50;;;;;;;7.83;63.51;101365.59;4780382;29;119448;-85
2022/12/06 07:05:59;;;;;;;16.60;14.07;;;;;;;7.67;63.40;101340.88;4769263;29;120327;-85
2022/12/06 07:08:28;;;;;;;16.92;13.45;;;;;;;7.37;63.77;101296.09;4765651;29;119442;-84
2022/12/06 07:10:57;;;;;;;16.15;13.40;;;;;;;7.85;63.53;101362.44;4779189;29;119398;-86
2022/12/06 07:13:25;;;;;;;17.27;13.52;;;;;;;7.60;63.84;101325.38;4768745;29;123603;-87
2022/12/06 07:15:57;;;;;;;18.05;14.40;;;;;;;7.41;63.69;101298.00;4786176;29;119339;-87
2022/12/06 07:18:24;;;;;;;18.17;13.82;;;;;;;7.85;64.18;101365.19;4770090;29;120661;-86
2022/12/06 07:20:59;;;;;;;17.63;13.57;;;;;;;7.82;63.05;101368.75;4794856;29;121547;-87
2022/12/06 07:23:27;;;;;;;19.95;14.65;;;;;;;7.41;63.87;101303.44;4767715;29;119332;-86
2022/12/06 07:26:05;;;;;;;18.70;14.40;;;;;;;7.39;63.94;101299.16;4761264;29;120674;-87
2022/12/06 07:28:37;;;;;;;16.88;13.80;;;;;;;7.57;64.34;101325.41;4781301;29;121178;-87
2022/12/06 07:31:19;;;;;;;17.05;13.95;;;;;;;7.49;64.08;101307.59;4775250;29;121604;-87
2022/12/06 07:33:50;;;;;;;16.83;13.70;;;;;;;7.92;63.91;101373.25;4767335;29;120926;-86
2022/12/06 07:36:21;;;;;;;16.92;13.75;;;;;;;7.92;63.72;101382.22;4792502;29;119396;-86
2022/12/06 07:38:56;;;;;;;17.27;13.40;;;;;;;7.52;64.11;101318.47;4776237;29;120016;-87
2022/12/06 07:47:40;;;;;;;16.92;12.60;;;;;;;7.56;63.50;101326.59;4779989;29;121049;-84
2022/12/06 07:50:10;;;;;;;14.93;12.80;;;;;;;7.76;63.16;101349.31;4782154;29;121959;-85
2022/12/06 07:52:37;;;;;;;16.05;13.40;;;;;;;7.49;63.37;101318.53;4786961;29;119483;-85
2022/12/06 07:55:05;;;;;;;16.10;13.18;;;;;;;7.65;63.65;101344.00;4780203;29;121743;-85
2022/12/06 07:57:32;;;;;;;15.27;12.75;;;;;;;7.53;63.30;101328.19;4782823;29;119440;-85
2022/12/06 07:59:59;;;;;;;17.63;14.02;;;;;;;7.53;64.10;101330.16;4782293;29;121805;-85
2022/12/06 08:02:30;;;;;;;17.17;13.95;;;;;;;7.68;63.20;101350.59;4781008;29;120997;-85
2022/12/06 08:05:02;;;;;;;16.30;13.73;;;;;;;7.68;63.52;101353.34;4754818;29;120180;-85
2022/12/06 08:07:31;;;;;;;17.77;13.85;;;;;;;7.70;63.70;101353.69;4781292;29;121682;-84
2022/12/06 08:10:00;;;;;;;18.70;13.75;;;;;;;7.67;63.88;101352.56;4778411;29;122077;-84
2022/12/06 08:12:39;;;;;;;17.92;13.32;;;;;;;7.85;63.37;101382.34;4779043;29;120283;-84
2022/12/06 08:15:11;;;;;;;16.52;12.98;;;;;;;7.62;63.59;101338.63;4784571;29;120832;-84
2022/12/06 08:17:39;;;;;;;17.73;13.98;;;;;;;7.68;63.48;101343.19;4781666;29;119879;-84
2022/12/06 08:20:07;;;;;;;25.65;17.25;;;;;;;7.95;63.79;101383.34;4779056;29;119574;-84
2022/12/06 08:22:34;;;;;;;19.33;15.05;;;;;;;7.63;63.95;101332.75;4795102;29;120224;-84
2022/12/06 08:25:01;;;;;;;17.88;13.70;;;;;;;7.61;63.56;101318.72;4793626;29;119372;-84
2022/12/06 08:27:28;;;;;;;17.35;13.90;;;;;;;7.94;63.40;101376.34;4778973;29;120753;-84
2022/12/06 08:30:00;;;;;;;23.45;15.60;;;;;;;7.87;63.63;101358.09;4765122;29;122298;-84
2022/12/06 08:32:26;;;;;;;17.42;12.88;;;;;;;7.78;63.56;101346.16;4761346;29;121888;-83
2022/12/06 08:34:54;;;;;;;14.05;12.23;;;;;;;7.71;63.68;101330.66;4807735;29;119708;-84
2022/12/06 08:37:22;;;;;;;13.95;11.38;;;;;;;7.75;63.30;101334.09;4760950;29;120033;-84
2022/12/06 08:39:49;;;;;;;14.73;11.05;;;;;;;7.68;63.43;101321.34;4763900;29;119960;-84
2022/12/06 08:42:15;;;;;;;15.35;12.38;;;;;;;7.91;62.77;101353.34;4798819;29;120456;-85
2022/12/06 08:44:41;;;;;;;16.42;12.55;;;;;;;7.98;62.53;101366.13;4782390;29;120865;-85
2022/12/06 08:47:11;;;;;;;15.15;12.30;;;;;;;7.71;62.76;101322.47;4777584;29;120671;-84
2022/12/06 08:49:37;;;;;;;17.50;14.15;;;;;;;7.81;62.76;101339.88;4764516;29;121860;-83
2022/12/06 08:52:04;;;;;;;17.15;13.02;;;;;;;7.73;63.37;101322.81;4792310;29;119373;-84
2022/12/06 08:54:33;;;;;;;15.60;12.48;;;;;;;7.84;62.55;101339.81;4762742;29;120775;-84
2022/12/06 08:57:02;;;;;;;21.20;12.68;;;;;;;7.66;62.90;101314.75;4767902;29;121697;-83
2022/12/06 08:59:30;;;;;;;25.83;16.15;;;;;;;7.63;62.81;101312.84;4764453;29;121999;-84
2022/12/06 09:01:56;;;;;;;15.85;12.32;;;;;;;7.77;62.49;101339.91;4792568;29;122726;-84
2022/12/06 09:04:23;;;;;;;17.92;13.40;;;;;;;7.83;62.99;101340.25;4759752;29;119416;-84
2022/12/06 09:06:53;;;;;;;18.15;12.98;;;;;;;7.78;62.64;101337.97;4779322;29;119248;-85
2022/12/06 09:09:20;;;;;;;24.30;14.48;;;;;;;7.63;63.21;101305.44;4794077;29;120208;-85
2022/12/06 09:11:49;;;;;;;21.63;13.05;;;;;;;7.98;63.02;101355.97;4794603;29;119542;-84
2022/12/06 09:14:17;;;;;;;49.78;22.23;;;;;;;7.75;62.93;101314.97;4776987;29;121375;-84
2022/12/06 09:16:44;;;;;;;19.17;13.05;;;;;;;7.91;62.46;101339.69;4779576;29;120839;-85
2022/12/06 09:19:12;;;;;;;24.10;15.27;;;;;;;7.96;62.37;101341.94;4769088;29;119417;-84
2022/12/06 09:21:41;;;;;;;33.85;17.08;;;;;;;8.09;62.87;101355.03;4761680;29;122622;-84
2022/12/06 09:24:14;;;;;;;34.70;17.45;;;;;;;8.05;62.63;101351.59;4764763;29;119340;-84
2022/12/06 09:26:41;;;;;;;15.50;11.68;;;;;;;8.06;62.24;101348.44;4780715;29;119446;-83
2022/12/06 09:29:08;;;;;;;17.10;11.45;;;;;;;7.88;62.44;101321.41;4749373;29;120695;-84
2022/12/06 09:31:38;;;;;;;22.48;13.13;;;;;;;8.31;62.54;101383.53;4794473;29;119495;-84
2022/12/06 09:34:08;;;;;;;17.88;12.02;;;;;;;7.95;61.85;101334.16;4764635;29;120427;-84
2022/12/06 09:36:44;;;;;;;13.35;10.55;;;;;;;8.10;61.43;101351.88;4764768;29;120882;-84
2022/12/06 09:39:22;;;;;;;27.63;15.02;;;;;;;7.93;61.92;101323.66;4764879;29;120143;-84
2022/12/06 09:41:51;;;;;;;15.45;11.13;;;;;;;8.39;61.29;101390.44;4778946;29;120374;-84
2022/12/06 09:44:42;;;;;;;15.80;10.98;;;;;;;8.40;61.30;101386.53;4780120;29;121286;-84
2022/12/06 09:47:24;;;;;;;16.25;11.52;;;;;;;8.42;61.03;101386.88;4780888;29;122198;-84
2022/12/06 09:50:18;;;;;;;12.90;9.10;;;;;;;8.42;60.46;101380.63;4779951;29;120619;-84
2022/12/06 09:53:22;;;;;;;11.27;7.97;;;;;;;8.43;60.44;101382.94;4782020;29;119304;-84
2022/12/06 09:56:24;;;;;;;11.40;9.13;;;;;;;8.46;60.70;101375.88;4779384;29;121234;-84
2022/12/06 09:59:19;;;;;;;8.95;8.05;;;;;;;8.45;59.84;101380.56;4780715;29;119308;-84
2022/12/06 10:02:03;;;;;;;13.77;9.70;;;;;;;8.23;59.99;101343.84;4782591;29;119533;-84
2022/12/06 10:04:45;;;;;;;10.35;8.50;;;;;;;8.47;59.61;101375.44;4783640;29;122620;-84
2022/12/06 10:07:29;;;;;;;10.10;8.43;;;;;;;8.50;59.47;101371.88;4771803;29;122390;-84
2022/12/06 10:10:28;;;;;;;12.43;8.05;;;;;;;8.51;59.29;101372.63;4768489;29;120461;-84
2022/12/06 10:13:22;;;;;;;8.98;7.47;;;;;;;8.28;59.35;101338.69;4799332;29;120386;-84
2022/12/06 10:16:10;;;;;;;8.55;7.28;;;;;;;8.16;59.16;101313.91;4783170;29;119642;-83
2022/12/06 10:19:02;;;;;;;17.50;10.43;;;;;;;8.55;58.92;101362.44;4768577;29;119470;-84
2022/12/06 10:21:48;;;;;;;13.55;8.77;;;;;;;8.56;58.68;101356.53;4768414;29;122517;-85
2022/12/06 10:24:30;;;;;;;15.63;9.40;;;;;;;8.43;59.14;101328.25;4768476;29;119282;-84
2022/12/06 10:27:24;;;;;;;13.93;10.00;;;;;;;8.60;59.18;101351.78;4784878;29;119517;-85
2022/12/06 10:30:03;;;;;;;10.13;7.57;;;;;;;8.42;59.14;101307.59;4780330;29;119718;-85
2022/12/06 10:32:51;;;;;;;9.50;7.22;;;;;;;8.63;58.86;101343.91;4770930;29;119698;-85
2022/12/06 10:35:44;;;;;;;10.20;6.88;;;;;;;8.36;58.04;101300.28;4783752;29;121748;-84
2022/12/06 10:38:16;;;;;;;20.33;11.30;;;;;;;8.38;58.57;101304.16;4784136;29;121190;-85
2022/12/06 10:40:51;;;;;;;11.00;6.90;;;;;;;8.60;57.78;101337.31;4767206;29;121238;-85
2022/12/06 10:44:04;;;;;;;8.85;7.13;;;;;;;8.20;57.82;101279.09;4784267;29;123318;-85
2022/12/06 10:47:05;;;;;;;12.90;7.75;;;;;;;8.58;57.69;101332.28;4761806;29;119787;-85
2022/12/06 10:50:07;;;;;;;14.70;8.95;;;;;;;8.55;57.65;101327.66;4807708;29;119402;-85
2022/12/06 10:52:55;;;;;;;22.15;11.25;;;;;;;8.32;58.47;101275.75;4756857;29;121780;-85
2022/12/06 10:55:30;;;;;;;19.90;10.35;;;;;;;8.23;58.06;101256.38;4774100;29;118514;-84
2022/12/06 10:58:25;;;;;;;15.80;9.90;;;;;;;8.61;58.14;101309.56;4771320;29;123068;-84
2022/12/06 11:00:59;;;;;;;9.18;7.47;;;;;;;8.47;57.21;101285.22;4786997;29;118948;-85
2022/12/06 11:03:44;;;;;;;14.20;8.57;;;;;;;8.61;57.53;101304.09;4771328;29;119473;-85
2022/12/06 11:06:38;;;;;;;9.98;7.85;;;;;;;8.40;57.55;101260.75;4771218;29;121643;-85
2022/12/06 11:09:34;;;;;;;16.92;9.52;;;;;;;8.65;57.68;101300.50;4771587;29;119271;-85
2022/12/06 11:12:01;;;;;;;26.50;13.18;;;;;;;8.52;57.53;101276.56;4754179;29;122405;-85
2022/12/06 11:14:42;;;;;;;16.58;9.82;;;;;;;8.50;57.38;101254.28;4787820;29;119503;-85
2022/12/06 11:17:18;;;;;;;20.67;10.57;;;;;;;8.48;57.35;101251.22;4785622;29;119442;-85
2022/12/06 11:19:49;;;;;;;37.47;14.70;;;;;;;8.39;57.58;101236.59;4802080;29;122018;-85
2022/12/06 11:22:52;;;;;;;19.73;9.82;;;;;;;8.64;57.42;101266.91;4780861;29;120267;-86
2022/12/06 11:25:23;;;;;;;12.00;7.72;;;;;;;8.55;57.51;101253.81;4768611;29;121146;-86
2022/12/06 11:28:14;;;;;;;15.40;8.80;;;;;;;8.79;57.91;101284.59;4799996;29;121729;-85
2022/12/06 11:30:44;;;;;;;15.93;9.45;;;;;;;8.56;57.28;101247.16;4768178;29;118495;-86
2022/12/06 11:33:13;;;;;;;21.27;10.52;;;;;;;8.42;57.06;101227.53;4782779;29;119566;-86
2022/12/06 11:35:40;;;;;;;8.30;7.15;;;;;;;8.33;56.50;101222.63;4798715;29;121069;-85
2022/12/06 11:38:21;;;;;;;12.23;8.10;;;;;;;8.71;56.27;101285.13;4783575;29;119550;-85
2022/12/06 11:40:50;;;;;;;7.80;6.28;;;;;;;8.23;55.62;101221.63;4782421;29;120096;-86
2022/12/06 11:43:23;;;;;;;8.05;6.57;;;;;;;8.25;55.08;101234.84;4772082;29;120398;-86
2022/12/06 11:45:52;;;;;;;11.03;7.17;;;;;;;8.19;55.73;101217.41;4767747;29;121037;-85
2022/12/06 11:48:23;;;;;;;7.65;6.10;;;;;;;8.51;54.64;101269.50;4782251;29;119946;-85
2022/12/06 11:50:51;;;;;;;7.65;6.22;;;;;;;8.07;54.95;101212.59;4797582;29;119631;-85
2022/12/06 11:53:28;;;;;;;7.50;6.10;;;;;;;8.46;54.29;101264.53;4781380;29;119330;-85
2022/12/06 11:56:03;;;;;;;8.18;6.00;;;;;;;8.01;54.32;101196.66;4797523;29;120975;-85
2022/12/06 11:58:39;;;;;;;10.50;6.55;;;;;;;8.42;55.31;101252.13;4796001;29;119167;-84